createdAt,value
2018-11-02T00:00:49.385Z,99.99
2018-11-02T00:01:50.755Z,99.99
2018-11-02T00:02:52.132Z,99.99
2018-11-02T00:03:53.507Z,99.99
2018-11-02T00:04:54.902Z,99.99
2018-11-02T00:05:56.276Z,99.99
2018-11-02T00:06:57.666Z,99.99
2018-11-02T00:07:59.039Z,99.99
2018-11-02T00:09:00.414Z,99.99
2018-11-02T00:10:01.788Z,99.99
2018-11-02T00:11:03.225Z,99.99
2018-11-02T00:12:04.556Z,99.99
2018-11-02T00:13:05.926Z,99.99
2018-11-02T00:14:07.309Z,99.99
2018-11-02T00:15:09.420Z,99.99
2018-11-02T00:16:10.794Z,99.99
2018-11-02T00:17:12.182Z,99.99
2018-11-02T00:18:13.550Z,99.99
2018-11-02T00:19:15.579Z,99.99
2018-11-02T00:20:16.960Z,99.99
2018-11-02T00:21:18.322Z,99.99
2018-11-02T00:22:19.703Z,99.99
2018-11-02T00:23:21.082Z,99.99
2018-11-02T00:24:22.463Z,99.99
2018-11-02T00:25:23.834Z,99.99
2018-11-02T00:26:25.179Z,99.99
2018-11-02T00:27:26.553Z,99.99
2018-11-02T00:28:27.923Z,99.99
2018-11-02T00:29:29.308Z,99.99
2018-11-02T00:30:31.630Z,99.99
2018-11-02T00:31:33.007Z,99.99
2018-11-02T00:32:35.177Z,99.99
2018-11-02T00:33:35.708Z,99.99
2018-11-02T00:34:37.078Z,99.99
2018-11-02T00:35:39.084Z,99.99
2018-11-02T00:36:40.453Z,99.99
2018-11-02T00:37:41.831Z,99.99
2018-11-02T00:38:43.211Z,99.99
2018-11-02T00:39:44.590Z,99.99
2018-11-02T00:40:45.960Z,99.99
2018-11-02T00:41:47.334Z,99.99
2018-11-02T00:42:49.615Z,99.99
2018-11-02T00:43:51.026Z,99.99
2018-11-02T00:44:52.378Z,99.99
2018-11-02T00:45:53.747Z,99.99
2018-11-02T00:46:55.127Z,99.99
2018-11-02T00:47:56.505Z,99.99
2018-11-02T00:48:57.891Z,99.99
2018-11-02T00:49:59.253Z,99.99
2018-11-02T00:51:00.623Z,99.99
2018-11-02T00:52:02.011Z,99.99
2018-11-02T00:53:03.853Z,99.99
2018-11-02T00:54:05.120Z,99.99
2018-11-02T00:55:06.503Z,99.99
2018-11-02T00:56:07.869Z,99.99
2018-11-02T00:57:09.248Z,99.99
2018-11-02T00:58:10.624Z,99.99
2018-11-02T00:59:11.999Z,99.99
2018-11-02T01:00:13.381Z,99.99
2018-11-02T01:01:14.751Z,99.99
2018-11-02T01:02:16.132Z,99.99
2018-11-02T01:03:17.506Z,99.99
2018-11-02T01:04:18.887Z,99.99
2018-11-02T01:05:20.269Z,99.99
2018-11-02T01:06:21.671Z,99.99
2018-11-02T01:07:23.021Z,99.99
2018-11-02T01:08:24.395Z,99.99
2018-11-02T01:09:25.778Z,99.99
2018-11-02T01:10:27.152Z,99.99
2018-11-02T01:11:28.532Z,99.99
2018-11-02T01:12:29.898Z,99.99
2018-11-02T01:13:31.280Z,99.99
2018-11-02T01:14:32.675Z,99.99
2018-11-02T01:15:34.038Z,99.99
2018-11-02T01:16:35.445Z,99.99
2018-11-02T01:17:36.792Z,99.99
2018-11-02T01:18:38.177Z,99.99
2018-11-02T01:19:39.558Z,99.99
2018-11-02T01:20:40.938Z,99.99
2018-11-02T01:21:42.305Z,99.99
2018-11-02T01:22:43.691Z,99.99
2018-11-02T01:23:45.063Z,99.99
2018-11-02T01:24:46.443Z,99.99
2018-11-02T01:25:47.818Z,99.99
2018-11-02T01:26:49.197Z,99.99
2018-11-02T01:27:50.569Z,99.99
2018-11-02T01:28:51.997Z,99.99
2018-11-02T01:29:53.335Z,99.99
2018-11-02T01:30:54.699Z,99.99
2018-11-02T01:31:56.082Z,99.99
2018-11-02T01:32:57.471Z,99.99
2018-11-02T01:33:58.840Z,99.99
2018-11-02T01:35:00.216Z,99.99
2018-11-02T01:36:01.615Z,99.99
2018-11-02T01:37:02.970Z,99.99
2018-11-02T01:38:04.346Z,99.99
2018-11-02T01:39:05.715Z,99.99
2018-11-02T01:40:07.086Z,99.99
2018-11-02T01:41:08.470Z,99.99
2018-11-02T01:42:09.848Z,99.99
2018-11-02T01:43:11.227Z,99.99
2018-11-02T01:44:12.591Z,99.99
2018-11-02T01:45:13.966Z,99.99
2018-11-02T01:46:15.303Z,99.99
2018-11-02T01:47:16.676Z,99.99
2018-11-02T01:48:18.049Z,99.99
2018-11-02T01:49:19.423Z,99.99
2018-11-02T01:50:20.797Z,99.99
2018-11-02T01:51:22.173Z,99.99
2018-11-02T01:52:23.549Z,99.99
2018-11-02T01:53:24.925Z,99.99
2018-11-02T01:54:26.296Z,99.99
2018-11-02T01:55:27.677Z,99.99
2018-11-02T01:56:29.057Z,99.99
2018-11-02T01:57:30.431Z,99.99
2018-11-02T01:58:31.814Z,99.99
2018-11-02T01:59:33.145Z,99.99
2018-11-02T02:00:34.520Z,99.99
2018-11-02T02:01:35.910Z,99.99
2018-11-02T02:02:37.288Z,99.99
2018-11-02T02:03:38.666Z,99.99
2018-11-02T02:04:40.047Z,99.99
2018-11-02T02:05:41.418Z,99.99
2018-11-02T02:06:42.791Z,99.99
2018-11-02T02:07:44.165Z,99.99
2018-11-02T02:08:45.542Z,99.99
2018-11-02T02:09:46.915Z,99.99
2018-11-02T02:10:48.296Z,99.99
2018-11-02T02:11:49.674Z,99.99
2018-11-02T02:12:51.050Z,99.99
2018-11-02T02:13:52.420Z,99.99
2018-11-02T02:14:53.804Z,99.99
2018-11-02T02:15:55.171Z,99.99
2018-11-02T02:16:56.549Z,99.99
2018-11-02T02:17:58.857Z,99.99
2018-11-02T02:19:00.233Z,99.99
2018-11-02T02:20:01.603Z,99.99
2018-11-02T02:21:02.985Z,99.99
2018-11-02T02:22:04.359Z,99.99
2018-11-02T02:23:05.738Z,99.99
2018-11-02T02:24:07.107Z,99.99
2018-11-02T02:25:08.489Z,99.99
2018-11-02T02:26:09.864Z,99.99
2018-11-02T02:27:11.244Z,99.99
2018-11-02T02:28:12.612Z,99.99
2018-11-02T02:29:13.990Z,99.99
2018-11-02T02:30:15.364Z,99.99
2018-11-02T02:31:16.740Z,99.99
2018-11-02T02:32:18.110Z,99.99
2018-11-02T02:33:19.484Z,99.99
2018-11-02T02:34:20.860Z,99.99
2018-11-02T02:35:22.246Z,99.99
2018-11-02T02:36:23.608Z,99.99
2018-11-02T02:37:24.996Z,99.99
2018-11-02T02:38:26.366Z,99.99
2018-11-02T02:39:27.754Z,99.99
2018-11-02T02:40:29.074Z,99.99
2018-11-02T02:41:30.458Z,99.99
2018-11-02T02:42:31.841Z,99.99
2018-11-02T02:43:33.208Z,99.99
2018-11-02T02:44:34.592Z,99.99
2018-11-02T02:45:35.969Z,99.99
2018-11-02T02:46:37.350Z,99.99
2018-11-02T02:47:38.731Z,99.99
2018-11-02T02:48:40.100Z,99.99
2018-11-02T02:49:41.481Z,99.99
2018-11-02T02:50:42.852Z,99.99
2018-11-02T02:51:44.224Z,99.99
2018-11-02T02:52:45.613Z,99.99
2018-11-02T02:53:46.995Z,99.99
2018-11-02T02:54:48.376Z,99.99
2018-11-02T02:55:49.761Z,99.99
2018-11-02T02:56:51.130Z,99.99
2018-11-02T02:57:52.510Z,99.99
2018-11-02T02:58:53.893Z,99.99
2018-11-02T02:59:55.277Z,99.99
2018-11-02T03:00:56.646Z,99.99
2018-11-02T03:01:58.034Z,99.99
2018-11-02T03:02:59.412Z,99.99
2018-11-02T03:04:00.795Z,99.99
2018-11-02T03:05:02.156Z,99.99
2018-11-02T03:06:03.489Z,99.99
2018-11-02T03:07:04.860Z,99.99
2018-11-02T03:08:06.232Z,99.99
2018-11-02T03:09:07.612Z,99.99
2018-11-02T03:10:08.981Z,99.99
2018-11-02T03:11:10.561Z,99.99
2018-11-02T03:12:11.695Z,99.99
2018-11-02T03:13:13.073Z,99.99
2018-11-02T03:14:14.446Z,99.99
2018-11-02T03:15:15.821Z,99.99
2018-11-02T03:16:17.196Z,99.99
2018-11-02T03:17:18.576Z,99.99
2018-11-02T03:18:20.003Z,99.99
2018-11-02T03:19:21.385Z,99.99
2018-11-02T03:20:22.731Z,99.99
2018-11-02T03:21:24.111Z,99.99
2018-11-02T03:22:25.603Z,99.99
2018-11-02T03:23:26.859Z,99.99
2018-11-02T03:24:28.245Z,99.99
2018-11-02T03:25:29.615Z,99.99
2018-11-02T03:26:30.989Z,99.99
2018-11-02T03:27:32.420Z,99.99
2018-11-02T03:28:33.766Z,99.99
2018-11-02T03:29:35.137Z,99.99
2018-11-02T03:30:36.515Z,99.99
2018-11-02T03:31:37.888Z,99.99
2018-11-02T03:32:39.262Z,99.99
2018-11-02T03:33:40.638Z,99.99
2018-11-02T03:34:42.008Z,99.99
2018-11-02T03:35:43.388Z,99.99
2018-11-02T03:36:44.811Z,99.99
2018-11-02T03:37:46.168Z,99.99
2018-11-02T03:38:47.511Z,99.99
2018-11-02T03:39:48.882Z,99.99
2018-11-02T03:40:50.254Z,99.99
2018-11-02T03:41:51.626Z,99.99
2018-11-02T03:42:53.894Z,99.99
2018-11-02T03:43:55.272Z,99.99
2018-11-02T03:44:56.644Z,99.99
2018-11-02T03:45:58.054Z,99.99
2018-11-02T03:46:59.396Z,99.99
2018-11-02T03:48:00.771Z,99.99
2018-11-02T03:49:02.156Z,99.99
2018-11-02T03:50:03.524Z,99.99
2018-11-02T03:51:04.911Z,99.99
2018-11-02T03:52:06.280Z,99.99
2018-11-02T03:53:07.885Z,99.99
2018-11-02T03:54:09.046Z,99.99
2018-11-02T03:55:10.417Z,99.99
2018-11-02T03:56:11.787Z,99.99
2018-11-02T03:57:13.170Z,99.99
2018-11-02T03:58:14.497Z,99.99
2018-11-02T03:59:15.880Z,99.99
2018-11-02T04:00:17.255Z,99.99
2018-11-02T04:01:18.627Z,99.99
2018-11-02T04:02:19.995Z,99.99
2018-11-02T04:03:21.376Z,99.99
2018-11-02T04:04:22.767Z,99.99
2018-11-02T04:05:24.132Z,99.99
2018-11-02T04:06:25.509Z,99.99
2018-11-02T04:07:26.880Z,99.99
2018-11-02T04:08:28.246Z,99.99
2018-11-02T04:09:29.687Z,99.99
2018-11-02T04:10:31.004Z,99.99
2018-11-02T04:11:32.339Z,99.99
2018-11-02T04:12:33.720Z,99.99
2018-11-02T04:13:35.095Z,99.99
2018-11-02T04:14:36.468Z,99.99
2018-11-02T04:15:37.842Z,99.99
2018-11-02T04:16:39.218Z,99.99
2018-11-02T04:17:40.595Z,99.99
2018-11-02T04:18:41.973Z,99.99
2018-11-02T04:19:43.351Z,99.99
2018-11-02T04:20:44.721Z,99.99
2018-11-02T04:21:46.089Z,99.99
2018-11-02T04:22:47.459Z,99.99
2018-11-02T04:23:48.841Z,99.99
2018-11-02T04:24:50.176Z,99.99
2018-11-02T04:25:51.545Z,99.99
2018-11-02T04:26:52.928Z,99.99
2018-11-02T04:27:54.300Z,99.99
2018-11-02T04:28:55.680Z,99.99
2018-11-02T04:29:57.048Z,99.99
2018-11-02T04:30:58.486Z,99.99
2018-11-02T04:31:59.804Z,99.99
2018-11-02T04:33:01.178Z,99.99
2018-11-02T04:34:02.553Z,99.99
2018-11-02T04:35:03.931Z,99.99
2018-11-02T04:36:05.309Z,99.99
2018-11-02T04:37:06.674Z,99.99
2018-11-02T04:38:08.056Z,99.99
2018-11-02T04:39:09.431Z,99.99
2018-11-02T04:40:10.806Z,99.99
2018-11-02T04:41:12.186Z,99.99
2018-11-02T04:42:13.559Z,99.99
2018-11-02T04:43:14.934Z,99.99
2018-11-02T04:44:16.307Z,99.99
2018-11-02T04:45:17.687Z,99.99
2018-11-02T04:46:19.855Z,99.99
2018-11-02T04:47:21.235Z,99.99
2018-11-02T04:48:22.604Z,99.99
2018-11-02T04:49:23.975Z,99.99
2018-11-02T04:50:25.346Z,99.99
2018-11-02T04:51:26.679Z,99.99
2018-11-02T04:52:28.050Z,99.99
2018-11-02T04:53:29.432Z,99.99
2018-11-02T04:54:30.805Z,99.99
2018-11-02T04:55:32.170Z,99.99
2018-11-02T04:56:33.553Z,99.99
2018-11-02T04:57:34.926Z,99.99
2018-11-02T04:58:36.299Z,99.99
2018-11-02T04:59:37.673Z,99.99
2018-11-02T05:00:39.045Z,99.99
2018-11-02T05:01:40.406Z,99.99
2018-11-02T05:02:41.785Z,99.99
2018-11-02T05:03:43.157Z,99.99
2018-11-02T05:04:44.544Z,99.99
2018-11-02T05:05:45.916Z,99.99
2018-11-02T05:06:47.283Z,99.99
2018-11-02T05:07:48.664Z,99.99
2018-11-02T05:08:50.031Z,99.99
2018-11-02T05:09:51.420Z,99.99
2018-11-02T05:10:52.777Z,99.99
2018-11-02T05:11:54.156Z,99.99
2018-11-02T05:12:55.533Z,99.99
2018-11-02T05:13:56.910Z,99.99
2018-11-02T05:14:58.290Z,99.99
2018-11-02T05:15:59.667Z,99.99
2018-11-02T05:17:01.039Z,99.99
2018-11-02T05:18:02.417Z,99.99
2018-11-02T05:19:03.795Z,99.99
2018-11-02T05:20:05.173Z,99.99
2018-11-02T05:21:06.600Z,99.99
2018-11-02T05:22:07.887Z,99.99
2018-11-02T05:23:09.271Z,99.99
2018-11-02T05:24:10.651Z,99.99
2018-11-02T05:25:12.023Z,99.99
2018-11-02T05:26:13.408Z,99.99
2018-11-02T05:27:14.771Z,99.99
2018-11-02T05:28:16.154Z,99.99
2018-11-02T05:29:17.530Z,99.99
2018-11-02T05:30:18.915Z,99.99
2018-11-02T05:31:20.275Z,99.99
2018-11-02T05:32:21.660Z,99.99
2018-11-02T05:33:23.038Z,99.99
2018-11-02T05:34:24.418Z,99.99
2018-11-02T05:35:25.793Z,99.99
2018-11-02T05:36:27.181Z,99.99
2018-11-02T05:37:28.540Z,99.99
2018-11-02T05:38:29.922Z,99.99
2018-11-02T05:39:31.316Z,99.99
2018-11-02T05:40:32.621Z,99.99
2018-11-02T05:41:34.001Z,99.99
2018-11-02T05:42:35.377Z,99.99
2018-11-02T05:43:36.751Z,99.99
2018-11-02T05:44:38.083Z,99.99
2018-11-02T05:45:39.454Z,99.99
2018-11-02T05:46:40.829Z,99.99
2018-11-02T05:47:42.206Z,99.99
2018-11-02T05:48:43.577Z,99.99
2018-11-02T05:49:44.961Z,99.99
2018-11-02T05:50:46.326Z,99.99
2018-11-02T05:51:47.705Z,99.99
2018-11-02T05:52:49.101Z,99.99
2018-11-02T05:53:50.476Z,99.99
2018-11-02T05:54:51.848Z,99.99
2018-11-02T05:55:53.220Z,99.99
2018-11-02T05:56:54.604Z,99.99
2018-11-02T05:57:55.982Z,99.99
2018-11-02T05:58:57.358Z,99.99
2018-11-02T05:59:58.808Z,99.99
2018-11-02T06:01:00.097Z,99.99
2018-11-02T06:02:01.445Z,99.99
2018-11-02T06:03:02.821Z,99.99
2018-11-02T06:04:04.198Z,99.99
2018-11-02T06:05:05.566Z,99.99
2018-11-02T06:06:06.946Z,99.99
2018-11-02T06:07:08.326Z,99.99
2018-11-02T06:08:09.696Z,99.99
2018-11-02T06:09:11.069Z,99.99
2018-11-02T06:10:12.439Z,99.99
2018-11-02T06:11:13.781Z,99.99
2018-11-02T06:12:15.157Z,99.99
2018-11-02T06:13:16.530Z,99.99
2018-11-02T06:14:17.911Z,99.99
2018-11-02T06:15:19.287Z,99.99
2018-11-02T06:16:20.663Z,99.99
2018-11-02T06:17:22.047Z,99.99
2018-11-02T06:18:23.423Z,99.99
2018-11-02T06:19:24.813Z,99.99
2018-11-02T06:20:26.192Z,99.99
2018-11-02T06:21:27.573Z,99.99
2018-11-02T06:22:28.952Z,99.99
2018-11-02T06:23:30.331Z,99.99
2018-11-02T06:24:31.706Z,99.99
2018-11-02T06:25:33.082Z,99.99
2018-11-02T06:26:34.474Z,99.99
2018-11-02T06:27:35.840Z,99.99
2018-11-02T06:28:37.222Z,99.99
2018-11-02T06:29:38.606Z,99.99
2018-11-02T06:30:40.005Z,99.99
2018-11-02T06:31:41.386Z,99.99
2018-11-02T06:32:42.843Z,99.99
2018-11-02T06:33:44.077Z,99.99
2018-11-02T06:34:45.462Z,99.99
2018-11-02T06:35:46.842Z,99.99
2018-11-02T06:36:48.230Z,99.99
2018-11-02T06:37:49.612Z,99.99
2018-11-02T06:38:51.087Z,99.99
2018-11-02T06:39:52.412Z,99.99
2018-11-02T06:40:53.790Z,99.99
2018-11-02T06:41:55.169Z,99.99
2018-11-02T06:42:56.567Z,99.99
2018-11-02T06:43:57.951Z,99.99
2018-11-02T06:44:59.410Z,99.99
2018-11-02T06:46:00.705Z,99.99
2018-11-02T06:47:02.093Z,99.99
2018-11-02T06:48:03.473Z,99.99
2018-11-02T06:49:04.855Z,99.99
2018-11-02T06:50:06.237Z,99.99
2018-11-02T06:51:07.775Z,99.99
2018-11-02T06:52:08.987Z,99.99
2018-11-02T06:53:10.366Z,99.99
2018-11-02T06:54:11.742Z,99.99
2018-11-02T06:55:13.128Z,99.99
2018-11-02T06:56:14.498Z,99.99
2018-11-02T06:57:15.880Z,99.99
2018-11-02T06:58:17.264Z,99.99
2018-11-02T06:59:18.709Z,99.99
2018-11-02T07:00:20.056Z,99.99
2018-11-02T07:01:21.409Z,99.99
2018-11-02T07:02:22.798Z,99.99
2018-11-02T07:03:24.169Z,99.99
2018-11-02T07:04:25.507Z,99.99
2018-11-02T07:05:26.885Z,99.99
2018-11-02T07:06:28.267Z,99.99
2018-11-02T07:07:29.911Z,99.99
2018-11-02T07:08:31.053Z,99.99
2018-11-02T07:09:32.361Z,99.99
2018-11-02T07:10:33.749Z,99.99
2018-11-02T07:11:35.116Z,99.99
2018-11-02T07:12:36.497Z,99.99
2018-11-02T07:13:37.863Z,99.99
2018-11-02T07:14:39.246Z,99.99
2018-11-02T07:15:40.621Z,99.99
2018-11-02T07:16:42.003Z,99.99
2018-11-02T07:17:43.377Z,99.99
2018-11-02T07:18:44.766Z,99.99
2018-11-02T07:19:46.158Z,99.99
2018-11-02T07:20:47.572Z,99.99
2018-11-02T07:21:48.904Z,99.99
2018-11-02T07:22:50.283Z,99.99
2018-11-02T07:23:51.681Z,99.99
2018-11-02T07:24:53.024Z,99.99
2018-11-02T07:25:54.378Z,99.99
2018-11-02T07:26:55.770Z,99.99
2018-11-02T07:27:57.154Z,99.99
2018-11-02T07:28:58.528Z,99.99
2018-11-02T07:29:59.906Z,99.99
2018-11-02T07:31:01.284Z,99.99
2018-11-02T07:32:02.657Z,99.99
2018-11-02T07:33:04.040Z,99.99
2018-11-02T07:34:05.438Z,99.99
2018-11-02T07:35:06.805Z,99.99
2018-11-02T07:36:08.188Z,99.99
2018-11-02T07:37:09.563Z,99.99
2018-11-02T07:38:10.949Z,99.99
2018-11-02T07:39:12.321Z,99.99
2018-11-02T07:40:13.707Z,99.99
2018-11-02T07:41:15.093Z,99.99
2018-11-02T07:42:16.469Z,99.99
2018-11-02T07:43:17.855Z,99.99
2018-11-02T07:44:19.234Z,99.99
2018-11-02T07:45:20.612Z,99.99
2018-11-02T07:46:21.991Z,99.99
2018-11-02T07:47:23.396Z,99.99
2018-11-02T07:48:24.720Z,99.99
2018-11-02T07:49:26.122Z,99.99
2018-11-02T07:50:27.442Z,99.99
2018-11-02T07:51:28.823Z,99.99
2018-11-02T07:52:30.212Z,99.99
2018-11-02T07:53:31.591Z,99.99
2018-11-02T07:54:32.972Z,99.99
2018-11-02T07:55:34.346Z,99.99
2018-11-02T07:56:35.732Z,99.99
2018-11-02T07:57:37.112Z,99.99
2018-11-02T07:58:38.504Z,99.99
2018-11-02T07:59:39.890Z,99.99
2018-11-02T08:00:41.275Z,99.99
2018-11-02T08:01:42.720Z,99.99
2018-11-02T08:02:44.040Z,99.99
2018-11-02T08:03:45.434Z,99.99
2018-11-02T08:04:46.830Z,99.99
2018-11-02T08:05:48.211Z,99.99
2018-11-02T08:06:49.625Z,99.99
2018-11-02T08:07:50.970Z,99.99
2018-11-02T08:08:52.361Z,99.75
2018-11-02T08:09:53.738Z,98.27
2018-11-02T08:10:55.130Z,97.94
2018-11-02T08:11:56.521Z,97.94
2018-11-02T08:12:57.900Z,98.03
2018-11-02T08:13:59.286Z,98.41
2018-11-02T08:15:00.633Z,98.51
2018-11-02T08:16:02.023Z,97.46
2018-11-02T08:17:03.402Z,96.80
2018-11-02T08:18:04.799Z,97.22
2018-11-02T08:19:06.326Z,96.36
2018-11-02T08:20:07.562Z,95.46
2018-11-02T08:21:08.949Z,96.08
2018-11-02T08:22:10.342Z,93.88
2018-11-02T08:23:11.689Z,95.03
2018-11-02T08:24:13.084Z,94.93
2018-11-02T08:25:14.480Z,96.27
2018-11-02T08:26:15.859Z,96.70
2018-11-02T08:27:17.234Z,97.27
2018-11-02T08:28:18.623Z,97.99
2018-11-02T08:29:20.004Z,97.61
2018-11-02T08:30:21.388Z,97.51
2018-11-02T08:31:22.779Z,97.13
2018-11-02T08:32:24.168Z,96.65
2018-11-02T08:33:25.573Z,95.89
2018-11-02T08:34:26.944Z,94.79
2018-11-02T08:35:28.341Z,94.41
2018-11-02T08:36:29.723Z,93.08
2018-11-02T08:37:31.112Z,92.22
2018-11-02T08:38:32.494Z,91.83
2018-11-02T08:39:33.885Z,90.93
2018-11-02T08:40:35.288Z,90.73
2018-11-02T08:41:36.675Z,90.02
2018-11-02T08:42:38.067Z,88.20
2018-11-02T08:43:39.457Z,87.73
2018-11-02T08:44:40.837Z,87.35
2018-11-02T08:45:42.235Z,86.68
2018-11-02T08:46:43.622Z,85.63
2018-11-02T08:47:45.011Z,85.53
2018-11-02T08:48:46.392Z,85.44
2018-11-02T08:49:47.791Z,85.53
2018-11-02T08:50:49.181Z,86.20
2018-11-02T08:51:50.572Z,86.68
2018-11-02T08:52:51.971Z,87.11
2018-11-02T08:53:53.363Z,87.02
2018-11-02T08:54:54.747Z,88.07
2018-11-02T08:55:56.138Z,89.02
2018-11-02T08:56:57.528Z,88.92
2018-11-02T08:57:59.063Z,88.92
2018-11-02T08:59:00.337Z,89.02
2018-11-02T09:00:01.674Z,89.21
2018-11-02T09:01:03.556Z,89.12
2018-11-02T09:02:04.942Z,88.83
2018-11-02T09:03:06.356Z,89.59
2018-11-02T09:04:07.760Z,88.54
2018-11-02T09:05:09.238Z,88.49
2018-11-02T09:06:10.552Z,87.54
2018-11-02T09:07:11.950Z,87.63
2018-11-02T09:08:13.344Z,86.30
2018-11-02T09:09:14.747Z,85.38
2018-11-02T09:10:16.125Z,85.38
2018-11-02T09:11:17.521Z,85.00
2018-11-02T09:12:18.938Z,83.57
2018-11-02T09:13:20.295Z,82.90
2018-11-02T09:14:21.681Z,83.23
2018-11-02T09:15:23.067Z,82.75
2018-11-02T09:16:24.460Z,82.56
2018-11-02T09:17:25.855Z,82.46
2018-11-02T09:18:27.284Z,81.79
2018-11-02T09:19:28.689Z,81.45
2018-11-02T09:20:30.033Z,81.07
2018-11-02T09:21:31.468Z,79.88
2018-11-02T09:22:32.815Z,79.50
2018-11-02T09:23:34.204Z,79.79
2018-11-02T09:24:35.599Z,80.36
2018-11-02T09:25:36.983Z,80.36
2018-11-02T09:26:38.379Z,80.40
2018-11-02T09:27:39.796Z,80.11
2018-11-02T09:28:41.125Z,79.44
2018-11-02T09:29:42.529Z,78.68
2018-11-02T09:30:43.899Z,78.58
2018-11-02T09:31:45.258Z,78.78
2018-11-02T09:32:46.632Z,78.39
2018-11-02T09:33:48.022Z,78.43
2018-11-02T09:34:49.421Z,77.76
2018-11-02T09:35:50.811Z,77.48
2018-11-02T09:36:53.036Z,75.89
2018-11-02T09:37:54.418Z,74.65
2018-11-02T09:38:55.807Z,73.79
2018-11-02T09:39:57.203Z,74.11
2018-11-02T09:40:58.598Z,73.05
2018-11-02T09:42:00.000Z,72.67
2018-11-02T09:43:01.396Z,73.05
2018-11-02T09:44:02.790Z,73.05
2018-11-02T09:45:04.186Z,73.02
2018-11-02T09:46:05.580Z,73.30
2018-11-02T09:47:06.970Z,73.30
2018-11-02T09:48:08.357Z,73.59
2018-11-02T09:49:09.756Z,73.79
2018-11-02T09:50:11.147Z,74.07
2018-11-02T09:51:12.551Z,74.16
2018-11-02T09:52:13.928Z,74.45
2018-11-02T09:53:15.319Z,74.74
2018-11-02T09:54:16.717Z,75.22
2018-11-02T09:55:18.098Z,75.41
2018-11-02T09:56:19.503Z,74.16
2018-11-02T09:57:20.883Z,74.40
2018-11-02T09:58:22.264Z,73.63
2018-11-02T09:59:23.649Z,73.54
2018-11-02T10:00:25.041Z,73.82
2018-11-02T10:01:26.430Z,73.34
2018-11-02T10:02:27.819Z,73.24
2018-11-02T10:03:29.740Z,73.72
2018-11-02T10:04:31.141Z,73.34
2018-11-02T10:05:32.547Z,73.34
2018-11-02T10:06:33.931Z,73.24
2018-11-02T10:07:35.317Z,73.50
2018-11-02T10:08:36.705Z,73.40
2018-11-02T10:09:38.127Z,73.88
2018-11-02T10:10:39.495Z,74.45
2018-11-02T10:11:40.889Z,75.60
2018-11-02T10:12:42.272Z,74.45
2018-11-02T10:13:43.669Z,74.55
2018-11-02T10:14:45.065Z,74.45
2018-11-02T10:15:46.451Z,75.51
2018-11-02T10:16:47.834Z,75.60
2018-11-02T10:17:49.243Z,75.41
2018-11-02T10:18:50.642Z,75.22
2018-11-02T10:19:52.029Z,75.02
2018-11-02T10:20:53.419Z,75.70
2018-11-02T10:21:54.822Z,75.41
2018-11-02T10:22:56.203Z,74.26
2018-11-02T10:23:57.651Z,74.93
2018-11-02T10:24:59.057Z,75.02
2018-11-02T10:26:00.398Z,75.41
2018-11-02T10:27:01.800Z,74.87
2018-11-02T10:28:03.257Z,74.77
2018-11-02T10:29:04.550Z,74.58
2018-11-02T10:30:05.941Z,73.54
2018-11-02T10:31:07.324Z,73.34
2018-11-02T10:32:08.734Z,73.79
2018-11-02T10:33:10.114Z,74.11
2018-11-02T10:34:11.458Z,74.58
2018-11-02T10:35:12.865Z,74.45
2018-11-02T10:36:14.250Z,74.58
2018-11-02T10:37:15.639Z,74.49
2018-11-02T10:38:16.986Z,74.65
2018-11-02T10:39:18.436Z,74.55
2018-11-02T10:40:19.777Z,74.49
2018-11-02T10:41:21.156Z,74.30
2018-11-02T10:42:22.561Z,74.49
2018-11-02T10:43:23.932Z,74.58
2018-11-02T10:44:25.435Z,74.40
2018-11-02T10:45:26.736Z,74.49
2018-11-02T10:46:28.077Z,74.20
2018-11-02T10:47:29.468Z,74.30
2018-11-02T10:48:30.889Z,73.91
2018-11-02T10:49:32.369Z,73.54
2018-11-02T10:50:33.667Z,74.11
2018-11-02T10:51:35.056Z,73.91
2018-11-02T10:52:36.451Z,73.82
2018-11-02T10:53:37.841Z,73.82
2018-11-02T10:54:39.305Z,74.58
2018-11-02T10:55:40.591Z,73.63
2018-11-02T10:56:42.011Z,73.05
2018-11-02T10:57:43.340Z,72.67
2018-11-02T10:58:44.734Z,72.86
2018-11-02T10:59:46.135Z,73.44
2018-11-02T11:00:47.563Z,73.63
2018-11-02T11:01:48.874Z,73.15
2018-11-02T11:02:50.286Z,72.77
2018-11-02T11:03:51.626Z,72.86
2018-11-02T11:04:52.990Z,72.48
2018-11-02T11:05:54.400Z,72.19
2018-11-02T11:06:55.742Z,72.58
2018-11-02T11:07:57.141Z,73.15
2018-11-02T11:08:58.544Z,72.06
2018-11-02T11:09:59.941Z,72.44
2018-11-02T11:11:01.277Z,72.92
2018-11-02T11:12:02.694Z,73.11
2018-11-02T11:13:04.205Z,73.79
2018-11-02T11:14:05.358Z,73.59
2018-11-02T11:15:06.707Z,73.30
2018-11-02T11:16:08.052Z,73.69
2018-11-02T11:17:09.399Z,73.79
2018-11-02T11:18:10.749Z,73.50
2018-11-02T11:19:12.094Z,73.21
2018-11-02T11:20:13.442Z,73.69
2018-11-02T11:21:14.856Z,73.97
2018-11-02T11:22:16.139Z,73.21
2018-11-02T11:23:17.528Z,73.40
2018-11-02T11:24:18.917Z,73.11
2018-11-02T11:25:20.308Z,72.73
2018-11-02T11:26:21.703Z,73.21
2018-11-02T11:27:23.093Z,73.50
2018-11-02T11:28:24.487Z,73.40
2018-11-02T11:29:26.007Z,74.26
2018-11-02T11:30:27.223Z,73.97
2018-11-02T11:31:28.617Z,73.59
2018-11-02T11:32:30.002Z,73.40
2018-11-02T11:33:31.400Z,73.40
2018-11-02T11:34:32.796Z,73.02
2018-11-02T11:35:34.189Z,72.73
2018-11-02T11:36:35.592Z,73.40
2018-11-02T11:37:36.994Z,73.02
2018-11-02T11:38:38.380Z,72.96
2018-11-02T11:39:39.825Z,72.96
2018-11-02T11:40:41.175Z,72.86
2018-11-02T11:41:42.552Z,72.48
2018-11-02T11:42:43.948Z,72.29
2018-11-02T11:43:45.342Z,72.77
2018-11-02T11:44:46.732Z,72.09
2018-11-02T11:45:48.122Z,71.42
2018-11-02T11:46:49.529Z,71.52
2018-11-02T11:47:50.920Z,70.85
2018-11-02T11:48:52.463Z,71.04
2018-11-02T11:49:53.667Z,71.42
2018-11-02T11:50:55.059Z,71.91
2018-11-02T11:51:56.447Z,71.33
2018-11-02T11:52:57.873Z,71.81
2018-11-02T11:53:59.228Z,72.29
2018-11-02T11:55:00.626Z,71.23
2018-11-02T11:56:02.026Z,71.71
2018-11-02T11:57:03.420Z,71.81
2018-11-02T11:58:04.824Z,71.33
2018-11-02T11:59:06.216Z,71.42
2018-11-02T12:00:07.613Z,71.71
2018-11-02T12:01:08.992Z,71.71
2018-11-02T12:02:10.433Z,72.29
2018-11-02T12:03:11.769Z,72.48
2018-11-02T12:04:13.184Z,71.52
2018-11-02T12:05:14.558Z,72.09
2018-11-02T12:06:15.947Z,72.19
2018-11-02T12:07:17.344Z,72.19
2018-11-02T12:08:18.732Z,72.19
2018-11-02T12:09:20.169Z,71.91
2018-11-02T12:10:21.521Z,72.54
2018-11-02T12:11:22.903Z,73.15
2018-11-02T12:12:24.299Z,73.11
2018-11-02T12:13:25.689Z,73.11
2018-11-02T12:14:27.080Z,73.30
2018-11-02T12:15:28.465Z,73.97
2018-11-02T12:16:29.818Z,73.97
2018-11-02T12:17:35.565Z,73.97
2018-11-02T12:18:36.958Z,74.26
2018-11-02T12:19:38.344Z,74.45
2018-11-02T12:20:39.730Z,74.26
2018-11-02T12:21:41.180Z,74.36
2018-11-02T12:22:43.227Z,74.07
2018-11-02T12:23:44.618Z,74.26
2018-11-02T12:24:45.968Z,74.70
2018-11-02T12:25:47.311Z,75.18
2018-11-02T12:26:48.706Z,75.09
2018-11-02T12:27:50.087Z,75.18
2018-11-02T12:28:51.484Z,75.37
2018-11-02T12:29:52.855Z,75.76
2018-11-02T12:30:54.246Z,75.56
2018-11-02T12:31:55.641Z,76.04
2018-11-02T12:32:57.032Z,76.14
2018-11-02T12:33:58.416Z,76.14
2018-11-02T12:34:59.810Z,75.85
2018-11-02T12:36:01.200Z,76.23
2018-11-02T12:37:02.625Z,76.42
2018-11-02T12:38:04.800Z,76.14
2018-11-02T12:39:06.181Z,76.62
2018-11-02T12:40:07.578Z,76.04
2018-11-02T12:41:08.963Z,76.29
2018-11-02T12:42:10.342Z,77.00
2018-11-02T12:43:11.774Z,77.06
2018-11-02T12:44:13.097Z,77.25
2018-11-02T12:45:14.483Z,77.15
2018-11-02T12:46:15.871Z,76.67
2018-11-02T12:47:17.262Z,76.57
2018-11-02T12:48:18.696Z,76.77
2018-11-02T12:49:20.382Z,76.96
2018-11-02T12:50:21.545Z,77.34
2018-11-02T12:51:22.815Z,77.25
2018-11-02T12:52:24.213Z,77.34
2018-11-02T12:53:25.608Z,76.96
2018-11-02T12:54:26.995Z,77.44
2018-11-02T12:55:28.388Z,77.82
2018-11-02T12:56:29.780Z,77.53
2018-11-02T12:57:31.145Z,77.44
2018-11-02T12:58:32.511Z,77.92
2018-11-02T12:59:33.910Z,77.92
2018-11-02T13:00:35.293Z,78.01
2018-11-02T13:01:36.688Z,77.82
2018-11-02T13:02:38.076Z,78.30
2018-11-02T13:03:39.467Z,78.11
2018-11-02T13:04:40.858Z,77.92
2018-11-02T13:05:45.425Z,78.20
2018-11-02T13:06:46.764Z,78.01
2018-11-02T13:07:48.715Z,78.01
2018-11-02T13:08:57.012Z,77.72
2018-11-02T13:10:06.959Z,77.92
2018-11-02T13:11:08.992Z,78.11